Time;durP1;ratioP1;P1;durP2;ratioP2;P2;SDS_P1;SDS_P2;PMS_P1;PMS_P2;Temp;Humidity;BMP_temperature;BMP_pressure;BME280_temperature;BME280_humidity;BME280_pressure;Samples;Min_cycle;Max_cycle;Signal;HPM_P1;HPM_P2
2022/09/02 00:01:27;;;;;;;2.40;2.25;;;;;;;16.08;58.51;101596.84;5072398;28;20097;-68
2022/09/02 00:04:05;;;;;;;7.15;2.78;;;;;;;16.03;58.33;101585.06;5070954;28;20032;-68
2022/09/02 00:06:31;;;;;;;3.28;2.63;;;;;;;15.98;58.58;101594.63;5072234;28;20036;-68
2022/09/02 00:08:58;;;;;;;4.68;3.03;;;;;;;15.95;58.48;101596.91;5072028;28;20025;-68
2022/09/02 00:11:26;;;;;;;4.10;2.05;;;;;;;15.95;58.64;101594.22;5072213;28;20056;-68
2022/09/02 00:13:53;;;;;;;7.13;3.28;;;;;;;15.87;59.42;101587.22;5072204;28;20024;-68
2022/09/02 00:16:19;;;;;;;4.60;2.65;;;;;;;15.81;59.38;101587.25;5072018;28;20040;-68
2022/09/02 00:18:47;;;;;;;2.80;2.50;;;;;;;15.76;59.49;101591.41;5072055;28;20020;-68
2022/09/02 00:21:13;;;;;;;3.88;2.85;;;;;;;15.72;59.83;101598.25;5071956;28;20016;-68
2022/09/02 00:23:41;;;;;;;5.03;2.70;;;;;;;15.68;59.59;101591.59;5071868;28;20467;-68
2022/09/02 00:26:06;;;;;;;8.27;2.58;;;;;;;15.63;59.86;101590.59;5071935;28;20029;-68
2022/09/02 00:28:31;;;;;;;5.53;2.50;;;;;;;15.64;60.30;101581.47;5071857;28;20605;-68
2022/09/02 00:30:57;;;;;;;4.15;2.42;;;;;;;15.64;60.40;101582.34;5072179;28;20047;-68
2022/09/02 00:33:22;;;;;;;4.10;2.72;;;;;;;15.63;60.30;101575.28;5071718;28;20131;-68
2022/09/02 00:35:49;;;;;;;2.97;2.60;;;;;;;15.56;60.26;101577.16;5071572;28;20032;-68
2022/09/02 00:38:15;;;;;;;4.28;3.88;;;;;;;15.51;60.66;101575.13;5071595;28;20058;-68
2022/09/02 00:40:47;;;;;;;5.68;3.10;;;;;;;15.44;60.71;101574.31;5071702;28;20128;-68
2022/09/02 00:43:21;;;;;;;;;;;;;;;15.47;59.06;101573.88;5072072;28;20141;-68
2022/09/02 00:45:46;;;;;;;5.72;2.67;;;;;;;15.46;61.04;101568.75;5071265;28;20534;-68
2022/09/02 00:48:12;;;;;;;6.93;2.95;;;;;;;15.40;61.36;101566.88;5071315;28;20107;-67
2022/09/02 00:50:37;;;;;;;5.07;3.38;;;;;;;15.38;61.89;101568.94;5071474;28;20035;-64
2022/09/02 00:53:11;;;;;;;3.45;3.15;;;;;;;15.37;61.43;101560.06;5071383;28;20029;-64
2022/09/02 00:55:43;;;;;;;8.70;3.72;;;;;;;15.36;62.04;101565.66;5071363;28;20033;-64
2022/09/02 00:58:13;;;;;;;;;;;;;;;15.37;59.75;101561.94;5071884;28;20055;-64
2022/09/02 01:00:43;;;;;;;4.72;2.88;;;;;;;15.23;62.38;101563.81;5071018;28;19926;-64
2022/09/02 01:03:12;;;;;;;4.45;2.67;;;;;;;15.19;62.37;101566.09;5071072;28;20044;-64
2022/09/02 01:05:45;;;;;;;4.80;3.10;;;;;;;15.16;62.82;101563.00;5070391;28;20024;-64
2022/09/02 01:08:18;;;;;;;3.67;3.00;;;;;;;15.08;62.81;101562.19;5071142;28;20028;-64
2022/09/02 01:10:46;;;;;;;5.43;2.72;;;;;;;15.05;62.66;101559.09;5071057;28;20028;-64
2022/09/02 01:13:16;;;;;;;5.75;3.00;;;;;;;15.03;63.30;101559.28;5070957;28;20044;-64
2022/09/02 01:15:47;;;;;;;4.00;3.10;;;;;;;14.99;63.51;101554.56;5070811;28;20024;-64
2022/09/02 01:18:17;;;;;;;3.17;2.85;;;;;;;14.93;63.32;101555.38;5070875;28;20341;-64
2022/09/02 01:20:42;;;;;;;4.43;3.08;;;;;;;14.85;63.46;101559.09;5070845;28;20391;-64
2022/09/02 01:23:08;;;;;;;6.22;3.40;;;;;;;14.86;63.70;101561.59;5070741;28;20021;-64
2022/09/02 01:25:34;;;;;;;3.90;3.20;;;;;;;14.82;63.61;101560.34;5070875;28;20467;-64
2022/09/02 01:28:07;;;;;;;3.60;3.30;;;;;;;14.77;64.45;101559.31;5069107;28;20449;-64
2022/09/02 01:30:33;;;;;;;3.50;2.92;;;;;;;14.78;64.07;101559.13;5070683;28;20034;-64
2022/09/02 01:32:59;;;;;;;3.55;2.72;;;;;;;14.82;64.22;101551.47;5070321;28;20368;-64
2022/09/02 01:35:24;;;;;;;3.67;3.00;;;;;;;14.80;64.49;101549.00;5070502;28;20032;-64
2022/09/02 01:37:56;;;;;;;3.22;2.83;;;;;;;14.77;64.35;101548.59;5070269;28;20484;-64
2022/09/02 01:40:24;;;;;;;5.57;3.45;;;;;;;14.76;64.21;101555.00;5069276;28;20038;-64
2022/09/02 01:42:55;;;;;;;3.42;3.13;;;;;;;14.78;63.85;101539.50;5070416;28;20028;-64
2022/09/02 01:45:22;;;;;;;5.18;3.50;;;;;;;14.79;64.32;101544.66;5070402;28;20036;-64
2022/09/02 01:47:47;;;;;;;7.75;2.80;;;;;;;14.76;64.59;101538.88;5070295;28;20032;-65
2022/09/02 01:50:13;;;;;;;6.53;3.33;;;;;;;14.75;64.60;101540.75;5070219;28;20103;-64
2022/09/02 01:52:38;;;;;;;6.95;3.47;;;;;;;14.74;64.40;101541.75;5070415;28;20037;-64
2022/09/02 01:55:04;;;;;;;7.55;3.30;;;;;;;14.68;64.36;101538.06;5070107;28;20421;-64
2022/09/02 01:57:30;;;;;;;3.78;3.00;;;;;;;14.66;64.40;101540.13;5070151;28;20074;-64
2022/09/02 01:59:55;;;;;;;5.68;3.40;;;;;;;14.58;64.28;101540.31;5070184;28;20040;-64
2022/09/02 02:02:22;;;;;;;3.63;2.97;;;;;;;14.57;64.28;101546.72;5070006;28;20432;-64
2022/09/02 02:04:48;;;;;;;5.32;3.05;;;;;;;14.47;64.56;101530.19;5069953;28;20107;-64
2022/09/02 02:07:19;;;;;;;4.82;3.40;;;;;;;14.52;64.99;101538.44;5069812;28;20021;-64
2022/09/02 02:09:45;;;;;;;5.13;3.73;;;;;;;14.52;65.64;101535.75;5070048;28;20091;-64
2022/09/02 02:12:10;;;;;;;5.07;3.63;;;;;;;14.53;64.84;101541.97;5069747;28;20036;-64
2022/09/02 02:14:36;;;;;;;5.25;3.40;;;;;;;14.53;64.43;101542.78;5069813;28;20624;-64
2022/09/02 02:17:02;;;;;;;4.65;4.13;;;;;;;14.51;65.17;101542.13;5069796;28;20060;-64
2022/09/02 02:19:28;;;;;;;5.88;3.85;;;;;;;14.43;65.51;101536.97;5069807;28;20028;-67
2022/09/02 02:21:53;;;;;;;5.25;3.70;;;;;;;14.44;64.97;101538.66;5069723;28;20028;-67
2022/09/02 02:24:18;;;;;;;6.68;3.70;;;;;;;14.39;65.00;101541.13;5069718;28;20107;-67
2022/09/02 02:26:44;;;;;;;4.75;3.55;;;;;;;14.33;65.40;101540.09;5069622;28;20974;-67
2022/09/02 02:29:10;;;;;;;3.22;2.90;;;;;;;14.31;65.16;101527.91;5069316;28;20113;-68
2022/09/02 02:31:36;;;;;;;5.50;2.95;;;;;;;14.35;64.99;101526.44;5069624;28;20078;-68
2022/09/02 02:34:02;;;;;;;4.85;2.78;;;;;;;14.36;65.14;101536.97;5069420;28;20075;-68
2022/09/02 02:36:28;;;;;;;5.15;3.65;;;;;;;14.39;65.58;101533.88;5069348;28;20036;-67
2022/09/02 02:38:54;;;;;;;6.55;3.50;;;;;;;14.34;65.29;101525.63;5069577;28;20035;-67
2022/09/02 02:41:19;;;;;;;6.00;3.63;;;;;;;14.35;65.70;101529.13;5069435;28;20025;-67
2022/09/02 02:43:45;;;;;;;6.13;3.45;;;;;;;14.30;66.63;101531.59;5069408;28;20438;-68
2022/09/02 02:46:11;;;;;;;5.53;3.40;;;;;;;14.29;65.46;101528.09;5069334;28;20020;-68
2022/09/02 02:48:37;;;;;;;4.60;3.20;;;;;;;14.23;65.59;101527.06;5069384;28;20074;-68
2022/09/02 02:51:04;;;;;;;6.20;3.20;;;;;;;14.22;66.42;101519.19;5069256;28;20024;-68
2022/09/02 02:53:30;;;;;;;4.15;3.40;;;;;;;14.20;66.93;101524.78;5069380;28;20094;-68
2022/09/02 02:55:56;;;;;;;4.47;3.65;;;;;;;14.20;66.51;101516.75;5069267;28;20033;-69
2022/09/02 02:58:22;;;;;;;6.30;3.42;;;;;;;14.19;67.02;101524.97;5069292;28;20028;-68
2022/09/02 03:00:48;;;;;;;4.38;3.85;;;;;;;14.15;65.97;101529.94;5069213;28;20047;-68
2022/09/02 03:03:18;;;;;;;5.85;4.05;;;;;;;14.08;67.00;101523.72;5069190;28;20059;-68
2022/09/02 03:05:44;;;;;;;5.13;4.10;;;;;;;14.09;66.71;101525.38;5069234;28;20396;-68
2022/09/02 03:08:11;;;;;;;7.63;3.47;;;;;;;14.03;66.48;101527.00;5069035;28;20031;-68
2022/09/02 03:10:40;;;;;;;5.00;3.72;;;;;;;14.00;66.15;101522.06;5069154;28;20029;-67
2022/09/02 03:13:08;;;;;;;5.28;3.63;;;;;;;13.99;66.38;101520.41;5069114;28;20036;-67
2022/09/02 03:15:34;;;;;;;4.47;3.40;;;;;;;13.98;66.44;101525.97;5069147;28;20024;-67
2022/09/02 03:17:59;;;;;;;4.57;4.18;;;;;;;13.86;67.18;101504.28;5069111;28;20425;-67
2022/09/02 03:20:25;;;;;;;4.13;3.47;;;;;;;13.94;66.52;101522.06;5069074;28;20039;-67
2022/09/02 03:22:54;;;;;;;5.20;3.10;;;;;;;13.82;66.25;101503.03;5068942;28;20032;-67
2022/09/02 03:25:20;;;;;;;28.17;4.53;;;;;;;13.85;66.72;101513.34;5068920;28;20158;-67
2022/09/02 03:27:47;;;;;;;5.63;4.38;;;;;;;13.82;66.80;101516.44;5068927;28;20527;-67
2022/09/02 03:30:16;;;;;;;3.33;2.92;;;;;;;13.77;66.96;101511.66;5072752;28;20119;-67
2022/09/02 03:32:41;;;;;;;3.38;2.97;;;;;;;13.75;67.03;101512.91;5072881;28;20329;-68
2022/09/02 03:35:14;;;;;;;4.72;3.72;;;;;;;13.73;66.80;101521.16;5072625;28;20082;-68
2022/09/02 03:37:40;;;;;;;6.05;3.22;;;;;;;13.73;67.03;101512.28;5072776;28;20373;-67
2022/09/02 03:40:10;;;;;;;18.17;4.32;;;;;;;13.76;67.34;101510.03;5072930;28;20040;-67
2022/09/02 03:42:36;;;;;;;9.15;3.30;;;;;;;13.77;67.26;101502.81;5072685;28;20028;-68
2022/09/02 03:45:03;;;;;;;4.60;3.58;;;;;;;13.76;67.77;101514.56;5072684;28;20028;-68
2022/09/02 03:47:29;;;;;;;6.45;3.58;;;;;;;13.72;67.56;101510.63;5072556;28;20036;-67
2022/09/02 03:49:56;;;;;;;6.65;4.25;;;;;;;13.69;67.07;101509.16;5072601;28;20033;-68
2022/09/02 03:52:23;;;;;;;7.55;3.85;;;;;;;13.75;67.97;101504.84;5072537;28;20111;-68
2022/09/02 03:54:48;;;;;;;6.88;3.35;;;;;;;13.76;67.24;101501.16;5072363;28;20632;-68
2022/09/02 03:57:15;;;;;;;5.80;3.55;;;;;;;13.75;67.50;101491.44;5072469;28;20113;-68
2022/09/02 03:59:40;;;;;;;8.27;4.05;;;;;;;13.74;67.38;101489.81;5072345;28;20036;-68
2022/09/02 04:02:06;;;;;;;6.00;4.15;;;;;;;13.71;67.57;101495.56;5070970;28;20141;-68
2022/09/02 04:04:32;;;;;;;7.20;4.18;;;;;;;13.74;67.37;101497.84;5072178;28;20036;-67
2022/09/02 04:06:58;;;;;;;6.63;4.68;;;;;;;13.73;68.06;101498.91;5072226;28;20109;-67
2022/09/02 04:09:24;;;;;;;7.35;4.00;;;;;;;13.70;67.57;101489.41;5072123;28;20021;-68
2022/09/02 04:11:49;;;;;;;6.25;3.70;;;;;;;13.69;67.81;101486.91;5072139;28;20036;-72
2022/09/02 04:14:15;;;;;;;5.85;3.83;;;;;;;13.71;67.64;101485.69;5072242;28;20033;-67
2022/09/02 04:16:41;;;;;;;3.78;3.28;;;;;;;13.73;67.33;101486.31;5072014;28;20043;-67
2022/09/02 04:19:08;;;;;;;5.45;3.58;;;;;;;13.70;66.95;101486.72;5072087;28;20021;-67
2022/09/02 04:21:36;;;;;;;6.97;3.30;;;;;;;13.71;66.87;101485.69;5072788;28;20051;-67
2022/09/02 04:24:03;;;;;;;5.65;3.90;;;;;;;13.69;68.32;101484.22;5071792;28;20494;-67
2022/09/02 04:26:28;;;;;;;6.35;4.25;;;;;;;13.70;68.04;101485.88;5071995;28;20166;-67
2022/09/02 04:28:54;;;;;;;4.38;3.40;;;;;;;13.71;67.27;101483.00;5071688;28;20494;-67
2022/09/02 04:31:24;;;;;;;5.25;3.35;;;;;;;13.74;67.24;101484.44;5071870;28;20024;-67
2022/09/02 04:33:50;;;;;;;6.75;3.75;;;;;;;13.69;67.56;101468.13;5071710;28;20528;-67
2022/09/02 04:36:18;;;;;;;6.40;3.05;;;;;;;13.77;67.23;101484.03;5071666;28;20044;-67
2022/09/02 04:38:44;;;;;;;5.75;3.53;;;;;;;13.80;67.92;101478.25;5071823;28;20078;-67
2022/09/02 04:41:15;;;;;;;4.20;3.45;;;;;;;13.82;68.13;101482.41;5070430;28;20044;-67
2022/09/02 04:43:41;;;;;;;3.10;2.80;;;;;;;13.84;67.96;101473.34;5071564;28;20605;-67
2022/09/02 04:46:08;;;;;;;4.13;3.00;;;;;;;13.85;67.74;101478.47;5071668;28;20060;-67
2022/09/02 04:48:38;;;;;;;4.38;2.92;;;;;;;13.84;68.03;101482.22;5071555;28;20446;-67
2022/09/02 04:51:05;;;;;;;5.55;4.05;;;;;;;13.84;67.62;101481.38;5071231;28;20087;-67
2022/09/02 04:53:31;;;;;;;9.15;4.47;;;;;;;13.87;67.43;101480.97;5071249;28;20027;-67
2022/09/02 04:55:56;;;;;;;7.15;3.45;;;;;;;13.88;67.19;101480.75;5071344;28;20066;-67
2022/09/02 04:58:22;;;;;;;6.15;3.42;;;;;;;13.94;67.37;101487.19;5071141;28;20013;-67
2022/09/02 05:00:47;;;;;;;5.43;3.00;;;;;;;13.93;67.57;101470.25;5071307;28;20109;-67
2022/09/02 05:03:12;;;;;;;6.18;3.80;;;;;;;13.85;67.73;101462.41;5071179;28;20141;-68
2022/09/02 05:05:38;;;;;;;7.22;2.72;;;;;;;13.98;67.47;101480.38;5069679;28;20043;-68
2022/09/02 05:08:04;;;;;;;4.30;3.00;;;;;;;13.99;68.02;101472.13;5070975;28;20025;-67
2022/09/02 05:10:31;;;;;;;3.97;2.92;;;;;;;14.02;67.52;101484.31;5070905;28;20127;-67
2022/09/02 05:12:56;;;;;;;3.58;2.80;;;;;;;14.03;67.55;101481.41;5070861;28;20033;-67
2022/09/02 05:15:22;;;;;;;7.07;3.25;;;;;;;14.07;67.42;101481.00;5070801;28;20040;-67
2022/09/02 05:17:47;;;;;;;6.55;2.92;;;;;;;14.10;67.67;101481.44;5070894;28;20047;-67
2022/09/02 05:20:12;;;;;;;8.35;3.22;;;;;;;14.16;67.72;101480.59;5070767;28;20037;-67
2022/09/02 05:22:39;;;;;;;4.47;2.60;;;;;;;14.21;67.77;101483.50;5070785;28;20484;-67
2022/09/02 05:25:07;;;;;;;6.50;3.10;;;;;;;14.25;66.88;101474.03;5070757;28;20020;-67
2022/09/02 05:27:33;;;;;;;7.80;2.80;;;;;;;14.31;66.78;101487.66;5070726;28;20529;-67
2022/09/02 05:29:58;;;;;;;6.50;3.83;;;;;;;14.36;67.09;101483.31;5070485;28;20040;-67
2022/09/02 05:32:26;;;;;;;5.30;2.75;;;;;;;14.42;67.75;101482.47;5070490;28;20025;-68
2022/09/02 05:34:52;;;;;;;8.02;3.40;;;;;;;14.45;67.55;101484.75;5070347;28;20080;-67
2022/09/02 05:37:18;;;;;;;5.78;3.00;;;;;;;14.53;67.33;101474.88;5070433;28;20115;-67
2022/09/02 05:39:43;;;;;;;4.32;2.97;;;;;;;14.57;66.78;101481.47;5070481;28;20531;-67
2022/09/02 05:42:09;;;;;;;3.78;3.13;;;;;;;14.62;66.70;101479.81;5070450;28;20036;-67
2022/09/02 05:44:35;;;;;;;2.85;2.65;;;;;;;14.62;66.85;101479.81;5070215;28;20020;-67
2022/09/02 05:47:01;;;;;;;4.57;3.55;;;;;;;14.68;66.28;101480.84;5070344;28;20039;-67
2022/09/02 05:49:26;;;;;;;6.75;3.60;;;;;;;14.68;66.40;101475.47;5070119;28;20037;-67
2022/09/02 05:51:57;;;;;;;4.13;2.67;;;;;;;14.78;66.54;101477.75;5069896;28;20056;-67
2022/09/02 05:54:29;;;;;;;18.88;3.42;;;;;;;14.82;65.55;101484.34;5068639;28;20471;-67
2022/09/02 05:56:56;;;;;;;;;;;;;;;14.88;65.11;101487.03;5070541;28;20036;-67
2022/09/02 05:59:22;;;;;;;4.82;2.28;;;;;;;14.91;65.42;101483.09;5070094;28;19946;-68
2022/09/02 06:01:48;;;;;;;2.90;2.45;;;;;;;14.97;64.77;101478.72;5069937;28;20025;-69
2022/09/02 06:04:14;;;;;;;7.22;2.63;;;;;;;15.02;64.62;101479.75;5070016;28;20040;-69
2022/09/02 06:06:41;;;;;;;6.93;3.00;;;;;;;15.08;64.11;101483.44;5070107;28;21021;-68
2022/09/02 06:09:08;;;;;;;3.65;2.70;;;;;;;15.14;64.37;101479.91;5069768;28;20041;-76
2022/09/02 06:11:38;;;;;;;3.50;2.28;;;;;;;15.18;64.21;101472.28;5069982;28;20028;-68
2022/09/02 06:14:06;;;;;;;8.57;2.60;;;;;;;15.23;64.52;101470.59;5069891;28;20050;-68
2022/09/02 06:16:31;;;;;;;5.80;3.80;;;;;;;15.28;64.37;101475.34;5069862;28;20020;-68
2022/09/02 06:18:57;;;;;;;5.40;2.30;;;;;;;15.32;63.56;101474.69;5069697;28;20024;-68
2022/09/02 06:21:22;;;;;;;7.22;2.78;;;;;;;15.37;63.46;101478.59;5069682;28;20040;-67
2022/09/02 06:23:47;;;;;;;5.88;3.47;;;;;;;15.39;63.54;101474.66;5069533;28;20032;-68
2022/09/02 06:26:14;;;;;;;7.53;3.30;;;;;;;15.44;63.63;101480.22;5069621;28;20040;-69
2022/09/02 06:28:40;;;;;;;4.90;3.35;;;;;;;15.45;63.93;101473.81;5069513;28;20497;-69
2022/09/02 06:31:08;;;;;;;9.93;3.20;;;;;;;15.42;63.24;101465.34;5069245;28;20119;-68
2022/09/02 06:33:34;;;;;;;4.25;2.60;;;;;;;15.54;63.21;101480.59;5069056;28;20110;-68
2022/09/02 06:35:59;;;;;;;3.45;2.50;;;;;;;15.59;62.59;101479.13;5069276;28;20028;-70
2022/09/02 06:38:24;;;;;;;5.43;3.08;;;;;;;15.62;63.11;101484.91;5068934;28;20025;-69
2022/09/02 06:40:54;;;;;;;4.95;2.67;;;;;;;15.66;62.83;101469.16;5068936;28;20036;-68
2022/09/02 06:43:20;;;;;;;5.72;2.75;;;;;;;15.71;63.42;101475.56;5069041;28;20025;-70
2022/09/02 06:45:45;;;;;;;7.60;3.00;;;;;;;15.74;63.00;101469.75;5069221;28;20089;-69
2022/09/02 06:48:12;;;;;;;9.20;4.85;;;;;;;15.79;62.85;101469.13;5068908;28;20041;-68
2022/09/02 06:50:43;;;;;;;5.50;2.92;;;;;;;15.84;63.62;101468.47;5069239;28;20115;-68
2022/09/02 06:53:10;;;;;;;5.00;3.53;;;;;;;15.85;63.60;101464.72;5069370;28;20028;-68
2022/09/02 06:55:37;;;;;;;9.60;3.30;;;;;;;15.90;63.19;101463.06;5069324;28;20064;-68
2022/09/02 06:58:03;;;;;;;8.02;3.72;;;;;;;15.96;63.27;101466.75;5069359;28;20388;-73
2022/09/02 07:00:29;;;;;;;4.95;3.20;;;;;;;16.03;63.28;101467.50;5067827;28;20033;-72
2022/09/02 07:05:15;;;;;;;6.28;3.83;;;;;;;16.17;62.79;101466.38;5096898;27;21956;-68
2022/09/02 07:07:43;;;;;;;7.20;3.47;;;;;;;16.23;62.64;101459.28;5090114;28;20044;-68
2022/09/02 07:10:10;;;;;;;5.47;3.58;;;;;;;16.23;62.64;101453.91;5090840;28;20024;-68
2022/09/02 07:12:37;;;;;;;8.30;3.75;;;;;;;16.35;62.53;101456.72;5090461;28;20036;-67
2022/09/02 07:15:04;;;;;;;7.30;4.22;;;;;;;16.39;63.71;101461.44;5089418;28;20475;-67
2022/09/02 07:17:29;;;;;;;7.25;3.88;;;;;;;16.44;62.61;101453.53;5090452;28;20111;-67
2022/09/02 07:19:58;;;;;;;8.25;4.53;;;;;;;16.49;62.37;101449.34;5090525;28;20524;-66
2022/09/02 07:22:24;;;;;;;7.57;4.75;;;;;;;16.51;62.04;101448.09;5089605;28;20054;-65
2022/09/02 07:24:49;;;;;;;7.63;4.00;;;;;;;16.60;61.99;101457.50;5090320;28;21010;-66
2022/09/02 07:27:15;;;;;;;6.38;3.75;;;;;;;16.65;63.13;101452.28;5090430;28;20058;-65
2022/09/02 07:29:42;;;;;;;6.85;3.88;;;;;;;16.71;61.93;101452.44;5089308;28;20051;-64
2022/09/02 07:32:08;;;;;;;5.32;3.88;;;;;;;16.77;63.00;101449.72;5090239;28;20039;-65
2022/09/02 07:34:33;;;;;;;11.85;4.00;;;;;;;16.85;63.25;101457.50;5091140;28;20035;-65
2022/09/02 07:36:59;;;;;;;10.50;4.25;;;;;;;16.94;63.86;101458.03;5109905;28;20027;-65
2022/09/02 07:39:24;;;;;;;6.45;4.43;;;;;;;16.98;62.84;101444.97;5092959;28;20026;-63
2022/09/02 07:41:51;;;;;;;7.20;3.80;;;;;;;17.05;62.28;101445.69;5109679;28;20018;-68
2022/09/02 07:44:18;;;;;;;8.45;4.35;;;;;;;17.10;60.88;101443.13;5110364;28;20164;-74
2022/09/02 07:46:44;;;;;;;7.15;3.30;;;;;;;17.21;60.93;101457.72;5110723;28;20403;-66
2022/09/02 07:49:11;;;;;;;5.32;4.00;;;;;;;17.31;61.02;101456.13;5110913;28;20095;-66
2022/09/02 07:51:40;;;;;;;4.97;3.97;;;;;;;17.39;60.79;101459.59;5109629;28;20028;-66
2022/09/02 07:54:07;;;;;;;5.43;3.75;;;;;;;17.49;61.00;101451.78;5109965;28;20020;-67
2022/09/02 07:56:33;;;;;;;6.28;3.33;;;;;;;17.51;59.37;101447.81;5109836;28;20059;-66
2022/09/02 07:58:58;;;;;;;6.07;3.85;;;;;;;17.62;59.84;101453.47;5110083;28;20441;-65
2022/09/02 08:01:24;;;;;;;6.03;4.30;;;;;;;17.67;60.02;101448.22;5110245;28;20023;-68
2022/09/02 08:03:50;;;;;;;7.35;4.15;;;;;;;17.74;59.78;101454.34;5109063;28;20043;-69
2022/09/02 08:06:16;;;;;;;7.47;4.10;;;;;;;17.80;59.66;101448.06;5109561;28;20952;-65
2022/09/02 08:08:42;;;;;;;9.65;4.30;;;;;;;17.85;60.17;101450.06;5109824;28;20039;-66
2022/09/02 08:11:08;;;;;;;9.88;4.47;;;;;;;17.89;59.65;101443.16;5109463;28;20034;-67
2022/09/02 08:13:35;;;;;;;4.68;4.03;;;;;;;18.00;58.78;101450.47;5109730;28;20054;-67
2022/09/02 08:16:01;;;;;;;7.88;4.85;;;;;;;18.06;59.73;101440.63;5099811;28;21629;-70
2022/09/02 08:18:28;;;;;;;8.07;4.93;;;;;;;18.17;58.69;101442.50;5095568;28;20037;-68
2022/09/02 08:20:54;;;;;;;10.18;4.55;;;;;;;18.25;58.67;101439.47;5095377;28;20026;-69
2022/09/02 08:23:19;;;;;;;4.63;3.75;;;;;;;18.36;59.14;101429.72;5095942;28;20135;-69
2022/09/02 08:25:45;;;;;;;5.80;3.78;;;;;;;18.50;59.95;101430.34;5095256;28;20027;-68
2022/09/02 08:28:10;;;;;;;6.38;4.15;;;;;;;18.66;58.33;101439.59;5091937;28;20086;-68
2022/09/02 08:30:36;;;;;;;8.20;4.03;;;;;;;18.80;59.26;101431.03;5092094;28;20085;-68
2022/09/02 08:33:01;;;;;;;7.18;3.88;;;;;;;18.98;58.97;101435.47;5091739;28;20387;-68
2022/09/02 08:35:27;;;;;;;9.40;4.63;;;;;;;19.26;59.25;101429.28;5091842;28;20123;-69
2022/09/02 08:37:52;;;;;;;7.85;3.72;;;;;;;19.42;57.58;101416.88;5091956;28;20468;-69
2022/09/02 08:40:21;;;;;;;8.80;4.40;;;;;;;19.61;58.29;101424.78;5091567;28;20032;-63
2022/09/02 08:42:53;;;;;;;6.95;4.10;;;;;;;19.74;58.16;101412.88;5093880;28;20031;-70
2022/09/02 08:45:30;;;;;;;8.95;3.72;;;;;;;19.89;58.34;101418.56;5095565;28;20032;-67
2022/09/02 08:48:13;;;;;;;8.23;3.70;;;;;;;19.99;56.17;101417.88;5094592;28;20069;-68
2022/09/02 08:50:43;;;;;;;6.53;4.05;;;;;;;20.19;56.35;101410.09;5095147;28;20016;-67
2022/09/02 08:53:17;;;;;;;6.55;3.83;;;;;;;20.38;55.94;101407.13;5094744;28;20024;-69
2022/09/02 08:55:50;;;;;;;11.00;4.93;;;;;;;20.51;54.84;101407.59;5095361;28;20421;-68
2022/09/02 08:58:20;;;;;;;16.15;4.57;;;;;;;20.63;55.10;101418.34;5095355;28;20016;-64
2022/09/02 09:00:52;;;;;;;8.60;4.22;;;;;;;20.73;53.61;101415.78;5095433;28;20028;-64
2022/09/02 09:03:35;;;;;;;14.70;5.03;;;;;;;20.82;55.60;101408.03;5094801;28;20044;-64
2022/09/02 09:06:14;;;;;;;21.75;5.15;;;;;;;20.93;55.28;101414.41;5094964;28;20031;-64
2022/09/02 09:08:50;;;;;;;9.82;4.25;;;;;;;20.99;52.15;101424.25;5091133;28;20020;-63
2022/09/02 09:11:28;;;;;;;5.70;3.53;;;;;;;20.98;52.71;101418.00;5090900;28;20028;-63
2022/09/02 09:14:12;;;;;;;11.88;3.20;;;;;;;21.07;52.68;101420.28;5091241;28;20020;-63
2022/09/02 09:16:45;;;;;;;7.18;3.67;;;;;;;21.14;51.96;101419.03;5091214;28;20035;-64
2022/09/02 09:19:27;;;;;;;9.20;3.75;;;;;;;21.26;52.38;101412.63;5091750;28;20024;-64
2022/09/02 09:21:54;;;;;;;8.25;4.28;;;;;;;21.42;51.05;101412.56;5091143;28;20040;-63
2022/09/02 09:24:33;;;;;;;10.25;5.05;;;;;;;21.57;51.56;101408.38;5090843;28;20034;-64
2022/09/02 09:27:01;;;;;;;5.85;4.10;;;;;;;21.72;50.97;101407.69;5089977;28;20080;-64
2022/09/02 09:29:31;;;;;;;7.90;3.35;;;;;;;21.85;53.13;101410.81;5090706;28;20020;-64
2022/09/02 09:31:58;;;;;;;10.77;4.60;;;;;;;21.93;50.19;101406.81;5072724;28;20032;-64
2022/09/02 09:34:44;;;;;;;8.38;4.38;;;;;;;21.97;50.54;101407.91;5091033;28;20027;-64
2022/09/02 09:37:09;;;;;;;10.13;4.55;;;;;;;22.05;49.50;101410.16;5090665;28;20031;-64
2022/09/02 09:39:35;;;;;;;9.18;4.57;;;;;;;22.11;49.15;101400.13;5090595;28;20403;-64
2022/09/02 09:42:08;;;;;;;12.02;4.30;;;;;;;22.10;49.26;101403.94;5090611;28;20875;-64
2022/09/02 09:44:47;;;;;;;7.90;3.80;;;;;;;22.24;50.08;101401.63;5090420;28;20066;-64
2022/09/02 09:47:20;;;;;;;8.73;4.25;;;;;;;22.31;49.71;101396.78;5090714;28;20032;-63
2022/09/02 09:49:47;;;;;;;12.85;5.60;;;;;;;22.40;49.64;101403.38;5090287;28;20054;-63
2022/09/02 09:52:27;;;;;;;8.93;4.28;;;;;;;22.47;49.07;101393.06;5090454;28;20039;-64
2022/09/02 09:55:18;;;;;;;6.95;3.42;;;;;;;22.52;49.12;101387.66;5090246;28;20058;-64
2022/09/02 09:57:46;;;;;;;13.67;5.20;;;;;;;22.56;47.59;101392.56;5090387;28;20024;-64
2022/09/02 10:00:31;;;;;;;10.80;3.95;;;;;;;22.66;48.71;101393.47;5090311;28;20158;-64
2022/09/02 10:02:59;;;;;;;7.57;4.05;;;;;;;22.81;49.52;101386.44;5090017;28;20081;-64
2022/09/02 10:05:37;;;;;;;7.72;4.47;;;;;;;22.88;48.16;101381.59;5089996;28;20024;-64
2022/09/02 10:08:05;;;;;;;6.03;3.42;;;;;;;23.02;47.34;101385.47;5090162;28;20035;-64
2022/09/02 10:10:32;;;;;;;9.50;4.07;;;;;;;23.09;46.88;101377.06;5090134;28;20479;-64
2022/09/02 10:13:14;;;;;;;5.72;3.40;;;;;;;23.12;46.84;101382.78;5090188;28;20135;-64
2022/09/02 10:16:01;;;;;;;7.13;3.72;;;;;;;23.21;46.66;101380.34;5089998;28;20029;-64
2022/09/02 10:18:52;;;;;;;6.53;3.30;;;;;;;23.45;47.99;101372.53;5090137;28;20020;-64
2022/09/02 10:21:59;;;;;;;12.95;3.90;;;;;;;23.45;45.95;101369.78;5089832;28;20137;-64
2022/09/02 10:24:36;;;;;;;7.95;4.15;;;;;;;23.41;46.48;101368.69;5007446;28;20500;-64
2022/09/02 10:27:07;;;;;;;5.32;3.25;;;;;;;23.48;48.31;101354.81;5007546;28;20408;-64
2022/09/02 10:30:04;;;;;;;10.25;3.28;;;;;;;23.59;46.51;101364.63;5054988;28;20035;-64
2022/09/02 10:32:35;;;;;;;4.28;3.22;;;;;;;23.65;43.86;101355.34;5089709;28;20035;-64
2022/09/02 10:35:24;;;;;;;5.10;2.60;;;;;;;23.74;44.02;101352.97;5089690;28;20060;-64
2022/09/02 10:38:07;;;;;;;5.85;3.20;;;;;;;23.82;44.03;101349.69;5089582;28;20056;-64
2022/09/02 10:40:44;;;;;;;4.82;2.50;;;;;;;23.89;45.01;101336.56;5089604;28;20055;-64
2022/09/02 10:43:25;;;;;;;6.85;2.75;;;;;;;24.01;44.76;101339.03;5089546;28;20024;-64
2022/09/02 10:45:56;;;;;;;4.87;2.73;;;;;;;24.11;44.11;101347.19;5089644;28;20490;-64
2022/09/02 10:48:37;;;;;;;7.30;3.55;;;;;;;24.17;43.51;101343.34;5089471;28;20265;-64
2022/09/02 10:51:23;;;;;;;4.60;2.50;;;;;;;24.22;41.35;101345.25;5089534;28;20032;-64
2022/09/02 10:54:08;;;;;;;3.28;2.53;;;;;;;24.24;40.66;101346.63;5088886;28;20051;-64
2022/09/02 10:57:03;;;;;;;4.88;2.42;;;;;;;24.32;42.64;101339.78;5089469;28;20027;-64
2022/09/02 10:59:52;;;;;;;4.18;2.38;;;;;;;24.52;40.93;101340.84;5089313;28;20036;-64
2022/09/02 11:02:30;;;;;;;6.35;2.50;;;;;;;24.70;42.96;101338.28;5088833;28;20040;-64
2022/09/02 11:05:05;;;;;;;4.03;2.83;;;;;;;24.78;40.42;101336.91;5089071;28;20080;-65
2022/09/02 11:07:39;;;;;;;3.22;2.83;;;;;;;24.84;39.07;101338.53;5089144;28;20059;-64
2022/09/02 11:10:14;;;;;;;4.32;3.15;;;;;;;24.90;39.55;101326.47;5089367;28;20071;-64
2022/09/02 11:12:47;;;;;;;5.53;2.90;;;;;;;25.09;39.64;101323.91;5089461;28;20020;-64
2022/09/02 11:15:47;;;;;;;10.15;2.95;;;;;;;25.11;39.59;101327.16;5089450;28;20107;-64
2022/09/02 11:18:22;;;;;;;5.78;3.83;;;;;;;25.08;38.54;101325.00;5089230;28;20052;-64
2022/09/02 11:20:59;;;;;;;2.70;2.50;;;;;;;25.05;38.65;101319.31;5089308;28;20051;-64
2022/09/02 11:23:37;;;;;;;5.18;3.00;;;;;;;24.81;41.78;101317.25;5089067;28;20024;-64
2022/09/02 11:26:16;;;;;;;4.38;3.00;;;;;;;24.57;38.93;101317.06;5089240;28;20394;-64
2022/09/02 11:28:55;;;;;;;4.20;2.50;;;;;;;24.59;38.06;101312.16;5089214;28;20379;-64
2022/09/02 11:31:29;;;;;;;8.15;3.53;;;;;;;24.73;36.42;101306.09;5089125;28;20028;-64
2022/09/02 11:34:02;;;;;;;4.65;2.65;;;;;;;24.84;38.32;101292.13;5090138;28;20034;-65
2022/09/02 11:36:28;;;;;;;4.45;2.60;;;;;;;24.90;38.59;101304.63;5092182;28;20041;-64